sensor_id;sensor_type;location;lat;lon;timestamp;pressure;altitude;pressure_sealevel;temperature;humidity
61524;BME280;47393;38.758;-9.164;2022-11-13T00:02:12;100688.47;;;11.93;100.00
61524;BME280;47393;38.758;-9.164;2022-11-13T00:04:31;100683.78;;;11.86;100.00
61524;BME280;47393;38.758;-9.164;2022-11-13T00:06:50;100682.72;;;11.77;100.00
61524;BME280;47393;38.758;-9.164;2022-11-13T00:09:10;100688.63;;;11.69;100.00
61524;BME280;47393;38.758;-9.164;2022-11-13T00:11:30;100682.75;;;11.66;100.00
61524;BME280;47393;38.758;-9.164;2022-11-13T00:13:49;100678.09;;;11.69;100.00
61524;BME280;47393;38.758;-9.164;2022-11-13T00:16:11;100674.94;;;11.75;100.00
61524;BME280;47393;38.758;-9.164;2022-11-13T00:18:33;100676.97;;;11.72;100.00
61524;BME280;47393;38.758;-9.164;2022-11-13T00:20:51;100677.63;;;11.64;100.00
61524;BME280;47393;38.758;-9.164;2022-11-13T00:23:10;100675.00;;;11.53;100.00
61524;BME280;47393;38.758;-9.164;2022-11-13T00:25:29;100666.66;;;11.36;100.00
61524;BME280;47393;38.758;-9.164;2022-11-13T00:27:48;100673.50;;;11.28;100.00
61524;BME280;47393;38.758;-9.164;2022-11-13T00:30:08;100670.75;;;11.29;100.00
61524;BME280;47393;38.758;-9.164;2022-11-13T00:32:26;100670.84;;;11.39;100.00
61524;BME280;47393;38.758;-9.164;2022-11-13T00:34:46;100670.63;;;11.42;100.00
61524;BME280;47393;38.758;-9.164;2022-11-13T00:37:04;100669.03;;;11.51;100.00
61524;BME280;47393;38.758;-9.164;2022-11-13T00:39:23;100672.47;;;11.63;100.00
61524;BME280;47393;38.758;-9.164;2022-11-13T00:41:42;100668.25;;;11.71;100.00
61524;BME280;47393;38.758;-9.164;2022-11-13T00:44:01;100672.97;;;11.89;100.00
61524;BME280;47393;38.758;-9.164;2022-11-13T00:46:20;100674.03;;;11.98;100.00
61524;BME280;47393;38.758;-9.164;2022-11-13T00:48:39;100679.31;;;11.98;100.00
61524;BME280;47393;38.758;-9.164;2022-11-13T00:50:59;100675.03;;;11.97;100.00
61524;BME280;47393;38.758;-9.164;2022-11-13T00:53:18;100676.25;;;11.81;100.00
61524;BME280;47393;38.758;-9.164;2022-11-13T00:55:37;100675.94;;;11.63;100.00
61524;BME280;47393;38.758;-9.164;2022-11-13T00:57:56;100675.22;;;11.61;100.00
61524;BME280;47393;38.758;-9.164;2022-11-13T01:00:18;100677.84;;;11.72;100.00
61524;BME280;47393;38.758;-9.164;2022-11-13T01:02:37;100672.94;;;11.68;100.00
61524;BME280;47393;38.758;-9.164;2022-11-13T01:04:56;100679.78;;;11.59;100.00
61524;BME280;47393;38.758;-9.164;2022-11-13T01:07:15;100674.56;;;11.48;100.00
61524;BME280;47393;38.758;-9.164;2022-11-13T01:09:34;100671.59;;;11.30;100.00
61524;BME280;47393;38.758;-9.164;2022-11-13T01:11:52;100670.16;;;11.25;100.00
61524;BME280;47393;38.758;-9.164;2022-11-13T01:14:11;100679.13;;;11.23;100.00
61524;BME280;47393;38.758;-9.164;2022-11-13T01:16:30;100678.66;;;11.29;100.00
61524;BME280;47393;38.758;-9.164;2022-11-13T01:18:49;100674.91;;;11.32;100.00
61524;BME280;47393;38.758;-9.164;2022-11-13T01:21:12;100672.88;;;11.47;100.00
61524;BME280;47393;38.758;-9.164;2022-11-13T01:23:31;100666.88;;;11.33;100.00
61524;BME280;47393;38.758;-9.164;2022-11-13T01:25:51;100666.66;;;11.36;100.00
61524;BME280;47393;38.758;-9.164;2022-11-13T01:28:10;100660.41;;;11.49;100.00
61524;BME280;47393;38.758;-9.164;2022-11-13T01:30:28;100665.56;;;11.39;100.00
61524;BME280;47393;38.758;-9.164;2022-11-13T01:32:47;100662.00;;;11.29;100.00
61524;BME280;47393;38.758;-9.164;2022-11-13T01:35:06;100662.00;;;11.29;100.00
61524;BME280;47393;38.758;-9.164;2022-11-13T01:37:25;100668.25;;;11.16;100.00
61524;BME280;47393;38.758;-9.164;2022-11-13T01:39:44;100674.84;;;11.11;100.00
61524;BME280;47393;38.758;-9.164;2022-11-13T01:42:03;100673.16;;;11.10;100.00
61524;BME280;47393;38.758;-9.164;2022-11-13T01:44:22;100671.72;;;11.17;100.00
61524;BME280;47393;38.758;-9.164;2022-11-13T01:46:42;100672.06;;;11.23;100.00
61524;BME280;47393;38.758;-9.164;2022-11-13T01:49:04;100671.59;;;11.18;100.00
61524;BME280;47393;38.758;-9.164;2022-11-13T01:51:34;100670.53;;;11.10;100.00
61524;BME280;47393;38.758;-9.164;2022-11-13T01:53:54;100679.13;;;11.00;100.00
61524;BME280;47393;38.758;-9.164;2022-11-13T01:56:13;100671.38;;;10.87;100.00
61524;BME280;47393;38.758;-9.164;2022-11-13T01:58:33;100684.28;;;10.79;100.00
61524;BME280;47393;38.758;-9.164;2022-11-13T02:00:53;100685.94;;;11.03;100.00
61524;BME280;47393;38.758;-9.164;2022-11-13T02:03:12;100678.53;;;11.19;100.00
61524;BME280;47393;38.758;-9.164;2022-11-13T02:05:31;100682.84;;;11.20;100.00
61524;BME280;47393;38.758;-9.164;2022-11-13T02:07:50;100671.97;;;11.14;100.00
61524;BME280;47393;38.758;-9.164;2022-11-13T02:10:09;100679.97;;;11.12;100.00
61524;BME280;47393;38.758;-9.164;2022-11-13T02:12:34;100682.13;;;10.96;100.00
61524;BME280;47393;38.758;-9.164;2022-11-13T02:14:54;100687.75;;;10.91;100.00
61524;BME280;47393;38.758;-9.164;2022-11-13T02:17:29;100690.38;;;10.91;100.00
61524;BME280;47393;38.758;-9.164;2022-11-13T02:19:50;100688.59;;;10.91;100.00
61524;BME280;47393;38.758;-9.164;2022-11-13T02:22:19;100681.91;;;10.87;100.00
61524;BME280;47393;38.758;-9.164;2022-11-13T02:24:40;100682.47;;;10.80;100.00
61524;BME280;47393;38.758;-9.164;2022-11-13T02:27:02;100674.94;;;10.75;100.00
61524;BME280;47393;38.758;-9.164;2022-11-13T02:29:22;100674.47;;;10.70;100.00
61524;BME280;47393;38.758;-9.164;2022-11-13T02:31:41;100673.25;;;10.63;100.00
61524;BME280;47393;38.758;-9.164;2022-11-13T02:34:01;100669.19;;;10.70;100.00
61524;BME280;47393;38.758;-9.164;2022-11-13T02:36:20;100673.38;;;10.72;100.00
61524;BME280;47393;38.758;-9.164;2022-11-13T02:38:40;100671.72;;;10.71;100.00
61524;BME280;47393;38.758;-9.164;2022-11-13T02:41:01;100673.75;;;10.79;100.00
61524;BME280;47393;38.758;-9.164;2022-11-13T02:43:19;100678.16;;;10.79;100.00
61524;BME280;47393;38.758;-9.164;2022-11-13T02:45:39;100676.97;;;10.71;100.00
61524;BME280;47393;38.758;-9.164;2022-11-13T02:47:58;100674.44;;;10.59;100.00
61524;BME280;47393;38.758;-9.164;2022-11-13T02:50:18;100670.25;;;10.45;100.00
61524;BME280;47393;38.758;-9.164;2022-11-13T02:52:37;100667.50;;;10.46;100.00
61524;BME280;47393;38.758;-9.164;2022-11-13T02:54:56;100674.53;;;10.46;100.00
61524;BME280;47393;38.758;-9.164;2022-11-13T02:57:15;100675.28;;;10.48;100.00
61524;BME280;47393;38.758;-9.164;2022-11-13T02:59:34;100675.50;;;10.45;100.00
61524;BME280;47393;38.758;-9.164;2022-11-13T03:01:53;100677.28;;;10.44;100.00
61524;BME280;47393;38.758;-9.164;2022-11-13T03:04:12;100688.69;;;10.56;100.00
61524;BME280;47393;38.758;-9.164;2022-11-13T03:06:31;100676.97;;;10.71;100.00
61524;BME280;47393;38.758;-9.164;2022-11-13T03:08:50;100684.53;;;10.76;100.00
61524;BME280;47393;38.758;-9.164;2022-11-13T03:11:09;100681.16;;;10.85;100.00
61524;BME280;47393;38.758;-9.164;2022-11-13T03:13:28;100674.84;;;10.77;100.00
61524;BME280;47393;38.758;-9.164;2022-11-13T03:15:47;100676.50;;;10.78;100.00
61524;BME280;47393;38.758;-9.164;2022-11-13T03:18:06;100670.75;;;10.84;100.00
61524;BME280;47393;38.758;-9.164;2022-11-13T03:20:25;100666.56;;;10.93;100.00
61524;BME280;47393;38.758;-9.164;2022-11-13T03:22:44;100663.13;;;10.92;100.00
61524;BME280;47393;38.758;-9.164;2022-11-13T03:25:04;100656.66;;;10.85;100.00
61524;BME280;47393;38.758;-9.164;2022-11-13T03:27:23;100658.09;;;10.78;100.00
61524;BME280;47393;38.758;-9.164;2022-11-13T03:29:42;100655.91;;;10.71;100.00
61524;BME280;47393;38.758;-9.164;2022-11-13T03:32:01;100652.31;;;10.61;100.00
61524;BME280;47393;38.758;-9.164;2022-11-13T03:34:20;100654.50;;;10.56;100.00
61524;BME280;47393;38.758;-9.164;2022-11-13T03:36:39;100657.59;;;10.61;100.00
61524;BME280;47393;38.758;-9.164;2022-11-13T03:38:58;100655.44;;;10.55;100.00
61524;BME280;47393;38.758;-9.164;2022-11-13T03:41:17;100654.34;;;10.46;100.00
61524;BME280;47393;38.758;-9.164;2022-11-13T03:43:36;100658.41;;;10.39;100.00
61524;BME280;47393;38.758;-9.164;2022-11-13T03:45:55;100648.34;;;10.44;100.00
61524;BME280;47393;38.758;-9.164;2022-11-13T03:48:14;100651.09;;;10.43;100.00
61524;BME280;47393;38.758;-9.164;2022-11-13T03:50:33;100639.75;;;10.42;100.00
61524;BME280;47393;38.758;-9.164;2022-11-13T03:52:52;100641.31;;;10.45;100.00
61524;BME280;47393;38.758;-9.164;2022-11-13T03:55:11;100640.22;;;10.47;100.00
61524;BME280;47393;38.758;-9.164;2022-11-13T03:57:30;100634.63;;;10.52;100.00
61524;BME280;47393;38.758;-9.164;2022-11-13T03:59:49;100638.34;;;10.49;100.00
61524;BME280;47393;38.758;-9.164;2022-11-13T04:02:08;100640.47;;;10.55;100.00
61524;BME280;47393;38.758;-9.164;2022-11-13T04:04:27;100642.78;;;10.49;100.00
61524;BME280;47393;38.758;-9.164;2022-11-13T04:06:46;100640.59;;;10.43;100.00
61524;BME280;47393;38.758;-9.164;2022-11-13T04:09:06;100640.13;;;10.60;100.00
61524;BME280;47393;38.758;-9.164;2022-11-13T04:11:24;100639.41;;;10.58;100.00
61524;BME280;47393;38.758;-9.164;2022-11-13T04:13:43;100644.56;;;10.60;100.00
61524;BME280;47393;38.758;-9.164;2022-11-13T04:16:03;100642.28;;;10.55;100.00
61524;BME280;47393;38.758;-9.164;2022-11-13T04:18:22;100635.44;;;10.41;100.00
61524;BME280;47393;38.758;-9.164;2022-11-13T04:20:41;100646.31;;;10.36;100.00
61524;BME280;47393;38.758;-9.164;2022-11-13T04:23:00;100640.31;;;10.34;100.00
61524;BME280;47393;38.758;-9.164;2022-11-13T04:25:19;100635.03;;;10.23;100.00
61524;BME280;47393;38.758;-9.164;2022-11-13T04:27:38;100633.94;;;10.26;100.00
61524;BME280;47393;38.758;-9.164;2022-11-13T04:29:57;100636.00;;;10.33;100.00
61524;BME280;47393;38.758;-9.164;2022-11-13T04:32:16;100640.66;;;10.30;100.00
61524;BME280;47393;38.758;-9.164;2022-11-13T04:34:35;100631.44;;;10.24;100.00
61524;BME280;47393;38.758;-9.164;2022-11-13T04:36:54;100631.09;;;10.17;100.00
61524;BME280;47393;38.758;-9.164;2022-11-13T04:39:13;100627.97;;;10.24;100.00
61524;BME280;47393;38.758;-9.164;2022-11-13T04:41:31;100626.69;;;10.29;100.00
61524;BME280;47393;38.758;-9.164;2022-11-13T04:44:09;100620.78;;;10.26;100.00
61524;BME280;47393;38.758;-9.164;2022-11-13T04:46:28;100621.91;;;10.23;100.00
61524;BME280;47393;38.758;-9.164;2022-11-13T04:48:47;100621.41;;;10.18;100.00
61524;BME280;47393;38.758;-9.164;2022-11-13T04:51:06;100618.66;;;10.19;100.00
61524;BME280;47393;38.758;-9.164;2022-11-13T04:53:25;100616.13;;;10.18;100.00
61524;BME280;47393;38.758;-9.164;2022-11-13T04:55:44;100611.22;;;10.13;100.00
61524;BME280;47393;38.758;-9.164;2022-11-13T04:58:03;100618.06;;;10.16;100.00
61524;BME280;47393;38.758;-9.164;2022-11-13T05:00:23;100622.41;;;10.04;100.00
61524;BME280;47393;38.758;-9.164;2022-11-13T05:02:41;100617.75;;;9.96;100.00
61524;BME280;47393;38.758;-9.164;2022-11-13T05:05:02;100619.63;;;9.94;100.00
61524;BME280;47393;38.758;-9.164;2022-11-13T05:07:21;100623.94;;;9.95;100.00
61524;BME280;47393;38.758;-9.164;2022-11-13T05:09:40;100628.22;;;9.85;100.00
61524;BME280;47393;38.758;-9.164;2022-11-13T05:11:59;100631.66;;;9.85;100.00
61524;BME280;47393;38.758;-9.164;2022-11-13T05:14:18;100629.91;;;9.86;100.00
61524;BME280;47393;38.758;-9.164;2022-11-13T05:16:37;100629.91;;;9.86;100.00
61524;BME280;47393;38.758;-9.164;2022-11-13T05:18:56;100630.13;;;9.83;100.00
61524;BME280;47393;38.758;-9.164;2022-11-13T05:21:15;100633.41;;;9.98;100.00
61524;BME280;47393;38.758;-9.164;2022-11-13T05:23:35;100613.72;;;10.03;100.00
61524;BME280;47393;38.758;-9.164;2022-11-13T05:26:04;100619.25;;;10.23;100.00
61524;BME280;47393;38.758;-9.164;2022-11-13T05:28:24;100625.19;;;10.14;100.00
61524;BME280;47393;38.758;-9.164;2022-11-13T05:30:44;100629.00;;;10.10;100.00
61524;BME280;47393;38.758;-9.164;2022-11-13T05:33:03;100630.50;;;10.25;100.00
61524;BME280;47393;38.758;-9.164;2022-11-13T05:35:22;100633.81;;;10.27;100.00
61524;BME280;47393;38.758;-9.164;2022-11-13T05:37:40;100630.47;;;10.14;100.00
61524;BME280;47393;38.758;-9.164;2022-11-13T05:39:59;100634.50;;;10.07;100.00
61524;BME280;47393;38.758;-9.164;2022-11-13T05:42:18;100624.72;;;10.09;100.00
61524;BME280;47393;38.758;-9.164;2022-11-13T05:44:37;100631.91;;;10.18;100.00
61524;BME280;47393;38.758;-9.164;2022-11-13T05:46:56;100636.38;;;10.29;100.00
61524;BME280;47393;38.758;-9.164;2022-11-13T05:49:15;100640.66;;;10.30;100.00
61524;BME280;47393;38.758;-9.164;2022-11-13T05:51:34;100635.09;;;10.46;100.00
61524;BME280;47393;38.758;-9.164;2022-11-13T05:53:53;100635.22;;;10.67;100.00
61524;BME280;47393;38.758;-9.164;2022-11-13T05:56:14;100637.50;;;10.94;100.00
61524;BME280;47393;38.758;-9.164;2022-11-13T05:58:33;100638.03;;;11.32;100.00
61524;BME280;47393;38.758;-9.164;2022-11-13T06:00:53;100648.28;;;11.57;100.00
61524;BME280;47393;38.758;-9.164;2022-11-13T06:03:12;100645.13;;;11.75;100.00
61524;BME280;47393;38.758;-9.164;2022-11-13T06:05:33;100647.47;;;11.89;100.00
61524;BME280;47393;38.758;-9.164;2022-11-13T06:07:52;100640.09;;;12.04;100.00
61524;BME280;47393;38.758;-9.164;2022-11-13T06:10:11;100647.38;;;12.12;100.00
61524;BME280;47393;38.758;-9.164;2022-11-13T06:12:30;100633.81;;;12.17;100.00
61524;BME280;47393;38.758;-9.164;2022-11-13T06:14:49;100634.50;;;12.19;100.00
61524;BME280;47393;38.758;-9.164;2022-11-13T06:17:08;100640.25;;;12.24;100.00
61524;BME280;47393;38.758;-9.164;2022-11-13T06:19:27;100643.06;;;12.32;100.00
61524;BME280;47393;38.758;-9.164;2022-11-13T06:21:46;100645.47;;;12.35;100.00
61524;BME280;47393;38.758;-9.164;2022-11-13T06:24:06;100650.88;;;12.34;100.00
61524;BME280;47393;38.758;-9.164;2022-11-13T06:26:26;100642.56;;;12.38;100.00
61524;BME280;47393;38.758;-9.164;2022-11-13T06:28:46;100644.28;;;12.49;100.00
61524;BME280;47393;38.758;-9.164;2022-11-13T06:31:06;100638.56;;;12.44;100.00
61524;BME280;47393;38.758;-9.164;2022-11-13T06:33:26;100641.34;;;12.42;100.00
61524;BME280;47393;38.758;-9.164;2022-11-13T06:35:46;100638.69;;;12.42;100.00
61524;BME280;47393;38.758;-9.164;2022-11-13T06:38:05;100646.75;;;12.41;100.00
61524;BME280;47393;38.758;-9.164;2022-11-13T06:40:24;100652.31;;;12.48;100.00
61524;BME280;47393;38.758;-9.164;2022-11-13T06:42:42;100651.69;;;12.55;100.00
61524;BME280;47393;38.758;-9.164;2022-11-13T06:45:02;100657.53;;;12.59;100.00
61524;BME280;47393;38.758;-9.164;2022-11-13T06:47:21;100650.88;;;12.64;100.00
61524;BME280;47393;38.758;-9.164;2022-11-13T06:49:40;100655.16;;;12.56;100.00
61524;BME280;47393;38.758;-9.164;2022-11-13T06:51:59;100660.09;;;12.49;100.00
61524;BME280;47393;38.758;-9.164;2022-11-13T06:54:18;100657.91;;;12.54;100.00
61524;BME280;47393;38.758;-9.164;2022-11-13T06:56:37;100656.97;;;12.55;100.00
61524;BME280;47393;38.758;-9.164;2022-11-13T06:58:59;100663.53;;;12.61;100.00
61524;BME280;47393;38.758;-9.164;2022-11-13T07:01:19;100666.84;;;12.63;100.00
61524;BME280;47393;38.758;-9.164;2022-11-13T07:03:39;100675.16;;;12.58;100.00
61524;BME280;47393;38.758;-9.164;2022-11-13T07:06:03;100676.53;;;12.53;100.00
61524;BME280;47393;38.758;-9.164;2022-11-13T07:08:22;100672.06;;;12.53;100.00
61524;BME280;47393;38.758;-9.164;2022-11-13T07:10:42;100682.50;;;12.55;100.00
61524;BME280;47393;38.758;-9.164;2022-11-13T07:13:01;100685.47;;;12.61;100.00
61524;BME280;47393;38.758;-9.164;2022-11-13T07:15:20;100682.41;;;12.66;100.00
61524;BME280;47393;38.758;-9.164;2022-11-13T07:17:39;100691.06;;;12.68;100.00
61524;BME280;47393;38.758;-9.164;2022-11-13T07:19:58;100682.16;;;12.69;100.00
61524;BME280;47393;38.758;-9.164;2022-11-13T07:22:17;100687.69;;;12.66;100.00
61524;BME280;47393;38.758;-9.164;2022-11-13T07:24:35;100698.59;;;12.73;100.00
61524;BME280;47393;38.758;-9.164;2022-11-13T07:26:54;100687.63;;;12.77;100.00
61524;BME280;47393;38.758;-9.164;2022-11-13T07:29:13;100696.13;;;12.81;100.00
61524;BME280;47393;38.758;-9.164;2022-11-13T07:31:32;100700.28;;;12.84;100.00
61524;BME280;47393;38.758;-9.164;2022-11-13T07:33:51;100706.56;;;12.83;100.00
61524;BME280;47393;38.758;-9.164;2022-11-13T07:36:10;100704.75;;;12.83;100.00
61524;BME280;47393;38.758;-9.164;2022-11-13T07:38:30;100708.13;;;12.95;100.00
61524;BME280;47393;38.758;-9.164;2022-11-13T07:40:49;100709.25;;;13.02;100.00
61524;BME280;47393;38.758;-9.164;2022-11-13T07:43:08;100707.75;;;13.09;100.00
61524;BME280;47393;38.758;-9.164;2022-11-13T07:45:28;100708.22;;;13.14;100.00
61524;BME280;47393;38.758;-9.164;2022-11-13T07:47:46;100712.44;;;13.27;100.00
61524;BME280;47393;38.758;-9.164;2022-11-13T07:50:05;100699.41;;;13.35;100.00
61524;BME280;47393;38.758;-9.164;2022-11-13T07:52:25;100704.94;;;13.32;100.00
61524;BME280;47393;38.758;-9.164;2022-11-13T07:54:44;100705.19;;;13.29;100.00
61524;BME280;47393;38.758;-9.164;2022-11-13T07:57:03;100710.19;;;13.53;100.00
61524;BME280;47393;38.758;-9.164;2022-11-13T07:59:22;100707.84;;;13.79;100.00
61524;BME280;47393;38.758;-9.164;2022-11-13T08:01:41;100704.66;;;14.05;100.00
61524;BME280;47393;38.758;-9.164;2022-11-13T08:04:00;100712.44;;;14.36;100.00
61524;BME280;47393;38.758;-9.164;2022-11-13T08:06:19;100717.75;;;14.16;100.00
61524;BME280;47393;38.758;-9.164;2022-11-13T08:08:38;100715.63;;;14.69;100.00
61524;BME280;47393;38.758;-9.164;2022-11-13T08:10:57;100724.38;;;14.79;100.00
61524;BME280;47393;38.758;-9.164;2022-11-13T08:13:16;100725.91;;;15.47;100.00
61524;BME280;47393;38.758;-9.164;2022-11-13T08:15:35;100718.78;;;15.20;100.00
61524;BME280;47393;38.758;-9.164;2022-11-13T08:17:55;100729.44;;;15.38;100.00
61524;BME280;47393;38.758;-9.164;2022-11-13T08:20:14;100733.00;;;15.74;100.00
61524;BME280;47393;38.758;-9.164;2022-11-13T08:22:33;100745.53;;;15.27;100.00
61524;BME280;47393;38.758;-9.164;2022-11-13T08:24:52;100743.38;;;15.40;100.00
61524;BME280;47393;38.758;-9.164;2022-11-13T08:27:11;100745.56;;;15.17;100.00
61524;BME280;47393;38.758;-9.164;2022-11-13T08:29:30;100741.66;;;14.83;100.00
61524;BME280;47393;38.758;-9.164;2022-11-13T08:31:49;100738.72;;;14.77;100.00
61524;BME280;47393;38.758;-9.164;2022-11-13T08:34:08;100736.41;;;14.44;100.00
61524;BME280;47393;38.758;-9.164;2022-11-13T08:36:27;100737.34;;;14.63;100.00
61524;BME280;47393;38.758;-9.164;2022-11-13T08:38:46;100743.50;;;14.73;100.00
61524;BME280;47393;38.758;-9.164;2022-11-13T08:41:05;100745.72;;;14.48;100.00
61524;BME280;47393;38.758;-9.164;2022-11-13T08:43:25;100741.41;;;14.57;100.00
61524;BME280;47393;38.758;-9.164;2022-11-13T08:45:45;100733.47;;;14.57;100.00
61524;BME280;47393;38.758;-9.164;2022-11-13T08:48:04;100732.22;;;14.12;100.00
61524;BME280;47393;38.758;-9.164;2022-11-13T08:50:23;100737.94;;;14.27;100.00
61524;BME280;47393;38.758;-9.164;2022-11-13T08:52:42;100741.00;;;14.23;100.00
61524;BME280;47393;38.758;-9.164;2022-11-13T08:55:01;100740.16;;;14.51;100.00
61524;BME280;47393;38.758;-9.164;2022-11-13T08:57:20;100739.16;;;14.52;100.00
61524;BME280;47393;38.758;-9.164;2022-11-13T08:59:39;100741.53;;;14.75;100.00
61524;BME280;47393;38.758;-9.164;2022-11-13T09:01:58;100738.59;;;14.78;100.00
61524;BME280;47393;38.758;-9.164;2022-11-13T09:04:17;100746.25;;;14.81;100.00
61524;BME280;47393;38.758;-9.164;2022-11-13T09:06:36;100751.50;;;15.29;100.00
61524;BME280;47393;38.758;-9.164;2022-11-13T09:08:55;100750.16;;;15.52;100.00
61524;BME280;47393;38.758;-9.164;2022-11-13T09:11:14;100747.03;;;15.39;100.00
61524;BME280;47393;38.758;-9.164;2022-11-13T09:13:33;100745.25;;;15.57;100.00
61524;BME280;47393;38.758;-9.164;2022-11-13T09:15:52;100747.13;;;15.93;100.00
61524;BME280;47393;38.758;-9.164;2022-11-13T09:18:11;100742.38;;;15.97;100.00
61524;BME280;47393;38.758;-9.164;2022-11-13T09:20:31;100751.31;;;15.96;100.00
61524;BME280;47393;38.758;-9.164;2022-11-13T09:23:03;100753.34;;;15.84;100.00
61524;BME280;47393;38.758;-9.164;2022-11-13T09:25:23;100752.41;;;15.75;100.00
61524;BME280;47393;38.758;-9.164;2022-11-13T09:27:42;100752.25;;;15.77;100.00
61524;BME280;47393;38.758;-9.164;2022-11-13T09:30:01;100759.06;;;16.07;100.00
61524;BME280;47393;38.758;-9.164;2022-11-13T09:32:20;100760.56;;;15.91;100.00
61524;BME280;47393;38.758;-9.164;2022-11-13T09:34:39;100764.94;;;15.83;100.00
61524;BME280;47393;38.758;-9.164;2022-11-13T09:36:58;100768.44;;;16.01;100.00
61524;BME280;47393;38.758;-9.164;2022-11-13T09:39:17;100764.78;;;15.84;100.00
61524;BME280;47393;38.758;-9.164;2022-11-13T09:41:38;100769.31;;;15.46;100.00
61524;BME280;47393;38.758;-9.164;2022-11-13T09:44:04;100757.63;;;15.39;100.00
61524;BME280;47393;38.758;-9.164;2022-11-13T09:46:35;100758.34;;;15.31;100.00
61524;BME280;47393;38.758;-9.164;2022-11-13T09:48:58;100757.25;;;15.24;100.00
61524;BME280;47393;38.758;-9.164;2022-11-13T09:51:20;100762.53;;;15.34;100.00
61524;BME280;47393;38.758;-9.164;2022-11-13T09:53:39;100748.19;;;15.27;100.00
61524;BME280;47393;38.758;-9.164;2022-11-13T09:56:03;100766.22;;;15.23;100.00
61524;BME280;47393;38.758;-9.164;2022-11-13T10:01:05;100772.59;;;15.58;100.00
61524;BME280;47393;38.758;-9.164;2022-11-13T10:05:56;100775.28;;;16.40;100.00
61524;BME280;47393;38.758;-9.164;2022-11-13T10:08:20;100775.69;;;16.89;100.00
61524;BME280;47393;38.758;-9.164;2022-11-13T10:10:44;100772.28;;;17.83;100.00
61524;BME280;47393;38.758;-9.164;2022-11-13T10:13:04;100772.50;;;17.97;100.00
61524;BME280;47393;38.758;-9.164;2022-11-13T10:15:28;100770.50;;;17.49;100.00
61524;BME280;47393;38.758;-9.164;2022-11-13T10:18:22;100771.81;;;17.10;100.00
61524;BME280;47393;38.758;-9.164;2022-11-13T10:20:45;100749.47;;;16.94;100.00
61524;BME280;47393;38.758;-9.164;2022-11-13T10:23:08;100768.03;;;17.55;100.00
61524;BME280;47393;38.758;-9.164;2022-11-13T10:25:30;100762.38;;;18.67;100.00
61524;BME280;47393;38.758;-9.164;2022-11-13T10:27:53;100760.50;;;19.09;99.37
61524;BME280;47393;38.758;-9.164;2022-11-13T10:30:13;100758.53;;;18.78;100.00
61524;BME280;47393;38.758;-9.164;2022-11-13T10:32:33;100763.94;;;19.26;98.02
61524;BME280;47393;38.758;-9.164;2022-11-13T10:35:00;100770.28;;;19.25;97.55
61524;BME280;47393;38.758;-9.164;2022-11-13T10:40:01;100772.88;;;18.68;100.00
61524;BME280;47393;38.758;-9.164;2022-11-13T10:42:28;100764.53;;;18.80;100.00
61524;BME280;47393;38.758;-9.164;2022-11-13T10:44:51;100768.50;;;18.84;100.00
61524;BME280;47393;38.758;-9.164;2022-11-13T10:47:15;100758.38;;;17.97;100.00
61524;BME280;47393;38.758;-9.164;2022-11-13T10:49:34;100757.25;;;18.24;100.00
61524;BME280;47393;38.758;-9.164;2022-11-13T10:51:57;100764.53;;;18.96;100.00
61524;BME280;47393;38.758;-9.164;2022-11-13T10:54:21;100769.69;;;18.90;98.99
61524;BME280;47393;38.758;-9.164;2022-11-13T10:56:41;100761.72;;;18.65;100.00
61524;BME280;47393;38.758;-9.164;2022-11-13T10:59:01;100763.91;;;18.28;100.00
61524;BME280;47393;38.758;-9.164;2022-11-13T11:01:21;100758.22;;;18.56;100.00
61524;BME280;47393;38.758;-9.164;2022-11-13T11:03:47;100758.88;;;18.83;99.90
61524;BME280;47393;38.758;-9.164;2022-11-13T11:06:06;100760.53;;;18.92;98.35
61524;BME280;47393;38.758;-9.164;2022-11-13T11:08:30;100765.34;;;18.80;100.00
61524;BME280;47393;38.758;-9.164;2022-11-13T11:10:54;100760.06;;;19.36;98.21
61524;BME280;47393;38.758;-9.164;2022-11-13T11:13:33;100760.38;;;19.81;95.46
61524;BME280;47393;38.758;-9.164;2022-11-13T11:15:53;100768.84;;;19.45;95.77
61524;BME280;47393;38.758;-9.164;2022-11-13T11:18:23;100766.34;;;18.79;100.00
61524;BME280;47393;38.758;-9.164;2022-11-13T11:20:51;100767.84;;;18.82;100.00
61524;BME280;47393;38.758;-9.164;2022-11-13T11:25:50;100762.69;;;19.45;97.46
61524;BME280;47393;38.758;-9.164;2022-11-13T11:28:59;100769.03;;;18.96;100.00
61524;BME280;47393;38.758;-9.164;2022-11-13T11:30:52;100758.13;;;19.22;98.54
61524;BME280;47393;38.758;-9.164;2022-11-13T11:33:22;100753.84;;;19.13;98.25
61524;BME280;47393;38.758;-9.164;2022-11-13T11:35:45;100753.13;;;19.19;98.47
61524;BME280;47393;38.758;-9.164;2022-11-13T11:38:20;100763.88;;;19.82;96.74
61524;BME280;47393;38.758;-9.164;2022-11-13T11:40:42;100756.63;;;19.59;97.05
61524;BME280;47393;38.758;-9.164;2022-11-13T11:43:05;100759.91;;;20.01;94.94
61524;BME280;47393;38.758;-9.164;2022-11-13T11:45:27;100762.47;;;20.40;91.88
61524;BME280;47393;38.758;-9.164;2022-11-13T11:47:47;100755.44;;;20.39;92.71
61524;BME280;47393;38.758;-9.164;2022-11-13T11:50:14;100761.59;;;20.02;94.62
61524;BME280;47393;38.758;-9.164;2022-11-13T11:52:46;100748.53;;;20.68;91.18
61524;BME280;47393;38.758;-9.164;2022-11-13T11:57:48;100748.69;;;20.52;91.99
61524;BME280;47393;38.758;-9.164;2022-11-13T12:00:12;100741.72;;;19.73;96.37
61524;BME280;47393;38.758;-9.164;2022-11-13T12:02:38;100739.19;;;19.80;95.16
61524;BME280;47393;38.758;-9.164;2022-11-13T12:12:50;100730.69;;;20.84;91.58
61524;BME280;47393;38.758;-9.164;2022-11-13T12:15:17;100730.56;;;21.52;89.38
61524;BME280;47393;38.758;-9.164;2022-11-13T12:20:20;100728.47;;;21.69;88.83